Etusivu
METAR-TAF:

METAR-TAF

Lentoasemat :

Kramfors, Ruotsi

Leveyspiiri: 63-03N, Pituuspiiri: 017-46E, korkeus merenpinnasta: 10 m

Tämänhetkinen sää

Tämä raportti tehtiin 20 minuuttia sitten, kello 12.20 UTC
Tuuli 5 kn lännestä
Lämpötila 8°C
Kosteus 66%
Ilmanpaine 1019 hPa
Näkyvyys 10 km tai enemmän

METAR: ESNK 191220Z AUTO 28005KT 9999 NCD 08/02 Q1019

Aika: 14:40 (12:40 UTC)

Sääennuste

Tämä raportti tehtiin 10 minuuttia sitten, kello 12.30 UTC
Ennuste voimassa 19. päivästä klo 13 UTC - 19. päivään klo 20 UTC
Tuuli 5 kn pohjoisen/luoteesta
Näkyvyys 10 km tai enemmän
ei pilviä alle 1500 m:ssä eikä cumulonimbus-pilviä

TAF: ESNK 191230Z 1913/1920 34005KT CAVOK

Säähavainnot ja -ennusteet yli 4000 lentoasemalta (METAR- ja TAF-raportit).

Käytössä olevat sääasemat on merkitty karttaan keltaisilla ja punaisilla pisteillä.

Aseta hiiri pisteen päälle nähdäksesi sääaseman nimen.

Klikkaa sitten nähdäksesi säähavainnot ja -ennusteet.

Kartan vaihtaminen: klikkaa mustalla rastilla varustettuja vihreitä pisteitä, niin voit zoomata sisään; viivalla varustettua vihreää pistettä, niin voit zoomata ulos tai vihreitä nuolia, niin pääset viereisille kartoille.


METAR-TAF: